Map

Track Data

SID SEASON NUMBER BASIN SUBBASIN NAME ISO_TIME NATURE LAT LON WMO_WIND WMO_PRES WMO_AGENCY TRACK_TYPE DIST2LAND LANDFALL IFLAG USA_AGENCY USA_ATCF_ID USA_LAT USA_LON USA_RECORD USA_STATUS USA_WIND USA_PRES USA_SSHS USA_R34_NE USA_R34_SE USA_R34_SW USA_R34_NW USA_R50_NE USA_R50_SE USA_R50_SW USA_R50_NW USA_R64_NE USA_R64_SE USA_R64_SW USA_R64_NW USA_POCI USA_ROCI USA_RMW USA_EYE TOKYO_LAT TOKYO_LON TOKYO_GRADE TOKYO_WIND TOKYO_PRES TOKYO_R50_DIR TOKYO_R50_LONG TOKYO_R50_SHORT TOKYO_R30_DIR TOKYO_R30_LONG TOKYO_R30_SHORT TOKYO_LAND CMA_LAT CMA_LON CMA_CAT CMA_WIND CMA_PRES HKO_LAT HKO_LON HKO_CAT HKO_WIND HKO_PRES NEWDELHI_LAT NEWDELHI_LON NEWDELHI_GRADE NEWDELHI_WIND NEWDELHI_PRES NEWDELHI_CI NEWDELHI_DP NEWDELHI_POCI REUNION_LAT REUNION_LON REUNION_TYPE REUNION_WIND REUNION_PRES REUNION_TNUM REUNION_CI REUNION_RMW REUNION_R34_NE REUNION_R34_SE REUNION_R34_SW REUNION_R34_NW REUNION_R50_NE REUNION_R50_SE REUNION_R50_SW REUNION_R50_NW REUNION_R64_NE REUNION_R64_SE REUNION_R64_SW REUNION_R64_NW BOM_LAT BOM_LON BOM_TYPE BOM_WIND BOM_PRES BOM_TNUM BOM_CI BOM_RMW BOM_R34_NE BOM_R34_SE BOM_R34_SW BOM_R34_NW BOM_R50_NE BOM_R50_SE BOM_R50_SW BOM_R50_NW BOM_R64_NE BOM_R64_SE BOM_R64_SW BOM_R64_NW BOM_ROCI BOM_POCI BOM_EYE BOM_POS_METHOD BOM_PRES_METHOD NADI_LAT NADI_LON NADI_CAT NADI_WIND NADI_PRES WELLINGTON_LAT WELLINGTON_LON WELLINGTON_WIND WELLINGTON_PRES DS824_LAT DS824_LON DS824_STAGE DS824_WIND DS824_PRES TD9636_LAT TD9636_LON TD9636_STAGE TD9636_WIND TD9636_PRES TD9635_LAT TD9635_LON TD9635_WIND TD9635_PRES TD9635_ROCI NEUMANN_LAT NEUMANN_LON NEUMANN_CLASS NEUMANN_WIND NEUMANN_PRES MLC_LAT MLC_LON MLC_CLASS MLC_WIND MLC_PRES USA_GUST BOM_GUST BOM_GUST_PER REUNION_GUST REUNION_GUST_PER USA_SEAHGT USA_SEARAD_NE USA_SEARAD_SE USA_SEARAD_SW USA_SEARAD_NW STORM_SPEED STORM_DIR
1895266N19126 1895 35 WP MM NOT_NAMED 1895-09-22 16:00:00 NR 19.3000 125.800 main 381 371 __________O___ -1 19.3000 125.800 7 3 288
1895266N19126 1895 35 WP MM NOT_NAMED 1895-09-22 18:00:00 NR 19.3274 125.711 main 371 361 __________P___ -1 19.3274 125.711 7 3 290
1895266N19126 1895 35 WP MM NOT_NAMED 1895-09-22 21:00:00 NR 19.3768 125.573 main 364 344 __________P___ -1 19.3768 125.573 7 3 294
1895266N19126 1895 35 WP MM NOT_NAMED 1895-09-23 00:00:00 NR 19.4482 125.425 main 344 338 __________P___ -1 19.4482 125.425 7 3 301
1895266N19126 1895 35 WP MM NOT_NAMED 1895-09-23 03:00:00 NR 19.5545 125.260 main 342 333 __________P___ -1 19.5545 125.260 7 4 305
1895266N19126 1895 35 WP MM NOT_NAMED 1895-09-23 04:00:00 NR 19.6000 125.200 main 333 323 __________O___ -1 19.6000 125.200 7 5 311
1895266N19126 1895 35 WP MM NOT_NAMED 1895-09-23 06:00:00 NR 19.7074 125.072 main 328 314 __________P___ -1 19.7074 125.072 7 5 313
1895266N19126 1895 35 WP MM NOT_NAMED 1895-09-23 09:00:00 NR 19.9000 124.862 main 320 307 __________P___ -1 19.9000 124.862 7 6 314
1895266N19126 1895 35 WP MM NOT_NAMED 1895-09-23 12:00:00 NR 20.1140 124.632 main 307 306 __________P___ -1 20.1140 124.632 7 6 314
1895266N19126 1895 35 WP MM NOT_NAMED 1895-09-23 15:00:00 NR 20.3305 124.385 main 306 306 __________P___ -1 20.3305 124.385 7 6 313
1895266N19126 1895 35 WP MM NOT_NAMED 1895-09-23 16:00:00 NR 20.4000 124.300 main 306 299 __________O___ -1 20.4000 124.300 7 6 308
1895266N19126 1895 35 WP MM NOT_NAMED 1895-09-23 18:00:00 NR 20.5251 124.120 main 301 297 __________P___ -1 20.5251 124.120 7 6 305
1895266N19126 1895 35 WP MM NOT_NAMED 1895-09-23 21:00:00 NR 20.7064 123.838 main 301 300 __________P___ -1 20.7064 123.838 7 6 304
1895266N19126 1895 35 WP MM NOT_NAMED 1895-09-24 00:00:00 NR 20.8801 123.554 main 300 267 __________P___ -1 20.8801 123.554 7 6 303
1895266N19126 1895 35 WP MM NOT_NAMED 1895-09-24 03:00:00 NR 21.0463 123.284 main 267 254 __________P___ -1 21.0463 123.284 7 6 304
1895266N19126 1895 35 WP MM NOT_NAMED 1895-09-24 04:00:00 NR 21.1000 123.200 main 254 240 __________O___ -1 21.1000 123.200 7 5 307
1895266N19126 1895 35 WP MM NOT_NAMED 1895-09-24 06:00:00 NR 21.2054 123.060 main 240 214 __________P___ -1 21.2054 123.060 7 5 310
1895266N19126 1895 35 WP MM NOT_NAMED 1895-09-24 09:00:00 NR 21.3575 122.869 main 214 191 __________P___ -1 21.3575 122.869 7 5 310
1895266N19126 1895 35 WP MM NOT_NAMED 1895-09-24 12:00:00 NR 21.5050 122.681 main 191 166 __________P___ -1 21.5050 122.681 7 5 309
1895266N19126 1895 35 WP MM NOT_NAMED 1895-09-24 15:00:00 NR 21.6511 122.476 main 166 156 __________P___ -1 21.6511 122.476 7 5 307
1895266N19126 1895 35 WP MM NOT_NAMED 1895-09-24 16:00:00 NR 21.7000 122.400 main 156 134 __________O___ -1 21.7000 122.400 7 5 303
1895266N19126 1895 35 WP MM NOT_NAMED 1895-09-24 18:00:00 NR 21.7971 122.241 main 134 113 __________P___ -1 21.7971 122.241 7 6 302
1895266N19126 1895 35 WP MM NOT_NAMED 1895-09-24 21:00:00 NR 21.9428 121.978 main 113 82 __________P___ -1 21.9428 121.978 7 6 299
1895266N19126 1895 35 WP MM NOT_NAMED 1895-09-25 00:00:00 NR 22.0915 121.676 main 82 41 __________P___ -1 22.0915 121.676 7 7 297
1895266N19126 1895 35 WP MM NOT_NAMED 1895-09-25 03:00:00 NR 22.2464 121.328 main 41 30 __________P___ -1 22.2464 121.328 7 7 295
1895266N19126 1895 35 WP MM NOT_NAMED 1895-09-25 04:00:00 NR 22.3000 121.200 main 30 0 __________O___ -1 22.3000 121.200 3 8 297
1895266N19126 1895 35 WP MM NOT_NAMED 1895-09-25 06:00:00 NR 22.4318 120.937 main 0 0 __________P___ -1 22.4318 120.937 3 9 297
1895266N19126 1895 35 WP MM NOT_NAMED 1895-09-25 09:00:00 NR 22.6362 120.498 main 0 0 __________P___ -1 22.6362 120.498 3 9 295
1895266N19126 1895 35 WP MM NOT_NAMED 1895-09-25 12:00:00 NR 22.8239 120.012 main 20 20 __________P___ -1 22.8239 120.012 3 10 289
1895266N19126 1895 35 WP MM NOT_NAMED 1895-09-25 15:00:00 NR 22.9670 119.484 main 62 62 __________P___ -1 22.9670 119.484 3 10 285
1895266N19126 1895 35 WP MM NOT_NAMED 1895-09-25 16:00:00 NR 23.0000 119.300 main 82 82 __________O___ -1 23.0000 119.300 4 11 279
1895266N19126 1895 35 WP MM NOT_NAMED 1895-09-25 18:00:00 NR 23.0477 118.913 main 123 97 __________P___ -1 23.0477 118.913 4 11 274
1895266N19126 1895 35 WP MM NOT_NAMED 1895-09-25 21:00:00 NR 23.0691 118.300 main 97 73 __________P___ -1 23.0691 118.300 4 11 269
1895266N19126 1895 35 WP MM NOT_NAMED 1895-09-26 00:00:00 NR 23.0328 117.680 main 78 45 __________P___ -1 23.0328 117.680 4 11 263
1895266N19126 1895 35 WP MM NOT_NAMED 1895-09-26 03:00:00 NR 22.9418 117.086 main 54 40 __________P___ -1 22.9418 117.086 4 11 260
1895266N19126 1895 35 WP MM NOT_NAMED 1895-09-26 04:00:00 NR 22.9000 116.900 main 40 10 __________O___ -1 22.9000 116.900 4 10 259
1895266N19126 1895 35 WP MM NOT_NAMED 1895-09-26 06:00:00 NR 22.8404 116.534 main 11 10 __________P___ -1 22.8404 116.534 4 10 257
1895266N19126 1895 35 WP MM NOT_NAMED 1895-09-26 09:00:00 NR 22.7081 116.023 main 15 10 __________P___ -1 22.7081 116.023 4 9 249
1895266N19126 1895 35 WP MM NOT_NAMED 1895-09-26 12:00:00 NR 22.5072 115.572 main 22 22 __________P___ -1 22.5072 115.572 4 9 237
1895266N19126 1895 35 WP MM NOT_NAMED 1895-09-26 15:00:00 NR 22.2188 115.202 main 45 39 __________P___ -1 22.2188 115.202 4 9 227
1895266N19126 1895 35 WP MM NOT_NAMED 1895-09-26 16:00:00 NR 22.1000 115.100 main 49 49 __________O___ -1 22.1000 115.100 7 9 213
1895266N19126 1895 35 WP MM NOT_NAMED 1895-09-26 18:00:00 NR 21.8264 114.929 main 78 78 __________P___ -1 21.8264 114.929 7 10 204
1895266N19126 1895 35 WP MM NOT_NAMED 1895-09-26 21:00:00 NR 21.3403 114.742 main 119 119 __________P___ -1 21.3403 114.742 7 11 196
1895266N19126 1895 35 WP MM NOT_NAMED 1895-09-27 00:00:00 NR 20.7888 114.617 main 170 170 __________P___ -1 20.7888 114.617 7 12 190
1895266N19126 1895 35 WP MM NOT_NAMED 1895-09-27 03:00:00 NR 20.1998 114.527 main 235 235 __________P___ -1 20.1998 114.527 7 12 188
1895266N19126 1895 35 WP MM NOT_NAMED 1895-09-27 04:00:00 NR 20.0000 114.500 main 258 __________O___ -1 20.0000 114.500 7 12 0

Digital Typhoon Data and Search

About IBTrACS Database

This database is a web-friendly format of International Best Track Archive for Climate Stewardship (IBTrACS), a global best track data archive curated by NOAA dating back to 1842.

Updated: 2021-10-08